Bremen, Minnesota
Current Conditions -  °F | °C
As of 6:27 AM on Sunday 23 Nov 2014 (Local Time) from K04W Reporting Station
Moderate Fog Moderate Fog  
Wind Chill: 39°   Ceiling: 200
Heat Index: 39°   Visibility: 0mi
Dew Point: 39°   Wind: 3mph
Humidity: 100%   Direction: 210°SSW
Pressure: 29.41"   Gusts: NA
Location:  46.2114°N, 92.9743°W
Report Text: K04W 231227Z AUTO 21003KT M1/4SM FG OVC002 04/04 A2941 RMK AO2
Loading
Personal Weather Stations






























Interactive Weather Map New forecast layout! Learn more

10-Day Weather Forecast

Advertisements
Track Severe Weather on mobile